createdAt,value
2019-04-20T00:00:58.574Z,15.80
2019-04-20T00:03:30.984Z,16.52
2019-04-20T00:05:57.488Z,15.55
2019-04-20T00:08:29.606Z,14.50
2019-04-20T00:11:04.201Z,14.07
2019-04-20T00:13:37.844Z,18.02
2019-04-20T00:15:57.817Z,19.40
2019-04-20T00:18:34.520Z,20.88
2019-04-20T00:21:04.778Z,20.75
2019-04-20T00:23:42.015Z,29.50
2019-04-20T00:26:27.329Z,30.23
2019-04-20T00:29:07.529Z,28.00
2019-04-20T00:31:38.729Z,30.65
2019-04-20T00:34:02.691Z,29.40
2019-04-20T00:36:22.194Z,29.15
2019-04-20T00:38:55.938Z,29.57
2019-04-20T00:41:23.032Z,29.18
2019-04-20T00:43:51.646Z,27.65
2019-04-20T00:46:25.844Z,30.55
2019-04-20T00:49:00.858Z,29.52
2019-04-20T00:51:35.390Z,26.93
2019-04-20T00:53:55.240Z,30.23
2019-04-20T00:56:22.372Z,28.77
2019-04-20T00:59:06.546Z,29.32
2019-04-20T01:01:45.055Z,29.57
2019-04-20T01:04:11.563Z,24.75
2019-04-20T01:06:46.731Z,22.35
2019-04-20T01:09:01.374Z,24.60
2019-04-20T01:11:35.462Z,20.97
2019-04-20T01:14:04.651Z,20.97
2019-04-20T01:16:40.089Z,17.82
2019-04-20T01:19:01.119Z,17.45
2019-04-20T01:21:31.810Z,24.05
2019-04-20T01:24:03.566Z,25.65
2019-04-20T01:26:31.217Z,25.72
2019-04-20T01:29:14.290Z,27.90
2019-04-20T01:31:38.319Z,31.70
2019-04-20T01:34:08.238Z,33.33
2019-04-20T01:36:45.849Z,30.82
2019-04-20T01:39:15.998Z,29.48
2019-04-20T01:41:31.437Z,30.32
2019-04-20T01:46:33.361Z,32.58
2019-04-20T01:49:10.493Z,29.27
2019-04-20T01:51:44.326Z,31.65
2019-04-20T01:54:24.939Z,28.38
2019-04-20T01:56:47.618Z,28.70
2019-04-20T01:59:20.003Z,27.67
2019-04-20T02:01:57.710Z,27.98
2019-04-20T02:04:34.578Z,28.77
2019-04-20T02:07:02.941Z,27.58
2019-04-20T02:09:32.576Z,28.83
2019-04-20T02:12:05.037Z,29.50
2019-04-20T02:14:40.498Z,28.73
2019-04-20T02:17:09.626Z,30.40
2019-04-20T02:19:52.204Z,28.83
2019-04-20T02:22:13.551Z,30.55
2019-04-20T02:24:32.017Z,25.65
2019-04-20T02:27:01.999Z,21.48
2019-04-20T02:29:57.036Z,26.82
2019-04-20T02:32:47.941Z,24.43
2019-04-20T02:34:59.435Z,27.10
2019-04-20T02:37:48.947Z,24.77
2019-04-20T02:40:09.099Z,27.98
2019-04-20T02:42:44.674Z,28.12
2019-04-20T02:45:18.860Z,27.48
2019-04-20T02:50:15.289Z,26.97
2019-04-20T02:57:50.363Z,26.42
2019-04-20T03:02:27.445Z,25.92
2019-04-20T03:04:49.141Z,24.23
2019-04-20T03:07:23.197Z,22.32
2019-04-20T03:10:02.546Z,24.50
2019-04-20T03:12:33.456Z,24.75
2019-04-20T03:14:55.274Z,23.25
2019-04-20T03:17:32.708Z,23.77
2019-04-20T03:19:57.381Z,22.52
2019-04-20T03:23:02.396Z,24.00
2019-04-20T03:25:05.121Z,23.20
2019-04-20T03:27:34.355Z,21.80
2019-04-20T03:30:28.689Z,20.62
2019-04-20T03:33:11.798Z,20.05
2019-04-20T03:35:18.251Z,22.42
2019-04-20T03:37:48.608Z,24.15
2019-04-20T03:40:10.287Z,21.95
2019-04-20T03:42:24.928Z,21.02
2019-04-20T03:45:01.798Z,23.57
2019-04-20T03:47:35.086Z,23.00
2019-04-20T03:50:18.612Z,21.57
2019-04-20T03:52:49.668Z,20.62
2019-04-20T03:55:24.375Z,19.17
2019-04-20T03:58:04.578Z,19.70
2019-04-20T04:00:43.310Z,18.25
2019-04-20T04:03:22.831Z,18.75
2019-04-20T04:05:48.156Z,18.92
2019-04-20T04:08:14.969Z,18.42
2019-04-20T04:10:58.496Z,18.82
2019-04-20T04:13:09.643Z,20.02
2019-04-20T04:15:46.761Z,17.65
2019-04-20T04:18:17.747Z,18.82
2019-04-20T04:20:49.992Z,18.95
2019-04-20T04:23:32.629Z,18.37
2019-04-20T04:25:59.200Z,21.12
2019-04-20T04:28:31.400Z,19.95
2019-04-20T04:31:03.593Z,18.77
2019-04-20T04:36:01.145Z,20.48
2019-04-20T04:38:37.656Z,20.35
2019-04-20T04:43:37.015Z,21.35
2019-04-20T04:45:46.961Z,19.45
2019-04-20T04:48:23.225Z,20.15
2019-04-20T04:50:52.759Z,22.17
2019-04-20T04:53:28.877Z,22.32
2019-04-20T04:55:54.687Z,20.05
2019-04-20T04:58:17.286Z,21.93
2019-04-20T05:00:46.724Z,21.30
2019-04-20T05:03:35.106Z,20.08
2019-04-20T05:06:08.777Z,20.60
2019-04-20T05:08:27.301Z,19.37
2019-04-20T05:10:49.965Z,19.48
2019-04-20T05:13:19.826Z,19.35
2019-04-20T05:16:03.595Z,20.57
2019-04-20T05:18:44.957Z,20.50
2019-04-20T05:21:10.636Z,21.52
2019-04-20T05:23:35.477Z,19.80
2019-04-20T05:26:26.459Z,23.45
2019-04-20T05:28:59.425Z,21.73
2019-04-20T05:31:24.450Z,20.60
2019-04-20T05:34:15.746Z,21.50
2019-04-20T05:36:42.672Z,21.60
2019-04-20T05:39:27.196Z,19.98
2019-04-20T05:41:37.360Z,19.62
2019-04-20T05:44:08.779Z,21.93
2019-04-20T05:46:42.525Z,19.48
2019-04-20T05:49:19.379Z,19.75
2019-04-20T05:51:45.967Z,19.45
2019-04-20T05:54:17.917Z,22.05
2019-04-20T05:56:47.717Z,21.80
2019-04-20T05:59:13.877Z,20.85
2019-04-20T06:01:53.257Z,21.62
2019-04-20T06:04:17.447Z,21.10
2019-04-20T06:06:52.076Z,20.97
2019-04-20T06:09:18.235Z,20.45
2019-04-20T06:12:00.690Z,20.55
2019-04-20T06:14:09.120Z,19.73
2019-04-20T06:16:55.794Z,20.62
2019-04-20T06:21:57.681Z,21.15
2019-04-20T06:24:36.242Z,21.52
2019-04-20T06:27:06.281Z,23.02
2019-04-20T06:29:30.997Z,22.10
2019-04-20T06:32:05.453Z,21.80
2019-04-20T06:37:01.059Z,19.80
2019-04-20T06:42:13.368Z,19.42
2019-04-20T06:44:45.786Z,19.85
2019-04-20T06:49:43.746Z,19.10
2019-04-20T06:52:15.381Z,18.32
2019-04-20T06:54:56.530Z,18.25
2019-04-20T06:57:29.176Z,18.95
2019-04-20T07:00:05.819Z,17.57
2019-04-20T07:02:45.687Z,16.10
2019-04-20T07:05:00.812Z,17.02
2019-04-20T07:07:32.205Z,15.75
2019-04-20T07:10:12.377Z,14.98
2019-04-20T07:12:28.652Z,17.10
2019-04-20T07:14:50.975Z,15.95
2019-04-20T07:17:53.388Z,12.90
2019-04-20T07:20:00.299Z,13.55
2019-04-20T07:25:14.025Z,11.12
2019-04-20T07:27:40.482Z,11.00
2019-04-20T07:30:15.003Z,12.50
2019-04-20T07:32:48.339Z,11.70
2019-04-20T07:35:14.419Z,12.15
2019-04-20T07:38:10.426Z,11.30
2019-04-20T07:40:15.132Z,10.80
2019-04-20T07:42:48.021Z,11.03
2019-04-20T07:45:21.806Z,11.30
2019-04-20T07:47:55.290Z,11.45
2019-04-20T07:50:13.284Z,11.03
2019-04-20T07:52:38.697Z,8.65
2019-04-20T07:55:40.531Z,8.83
2019-04-20T07:57:41.939Z,8.15
2019-04-20T08:00:20.082Z,9.00
2019-04-20T08:03:12.840Z,8.85
2019-04-20T08:05:33.663Z,6.25
2019-04-20T08:08:08.418Z,6.62
2019-04-20T08:10:53.669Z,6.58
2019-04-20T08:13:16.199Z,4.92
2019-04-20T08:18:16.642Z,3.98
2019-04-20T08:20:46.352Z,3.98
2019-04-20T08:23:18.580Z,4.30
2019-04-20T08:25:36.030Z,4.50
2019-04-20T08:28:16.791Z,4.53
2019-04-20T08:31:10.382Z,3.95
2019-04-20T08:34:09.731Z,4.28
2019-04-20T08:36:26.921Z,3.92
2019-04-20T08:39:13.816Z,4.28
2019-04-20T08:41:28.644Z,4.40
2019-04-20T08:43:59.043Z,3.62
2019-04-20T08:46:45.583Z,3.10
2019-04-20T08:49:03.247Z,2.80
2019-04-20T08:51:34.617Z,3.30
2019-04-20T08:53:59.373Z,3.12
2019-04-20T08:56:21.920Z,3.10
2019-04-20T08:58:41.272Z,2.75
2019-04-20T09:01:14.190Z,2.85
2019-04-20T09:03:51.249Z,2.60
2019-04-20T09:06:28.343Z,2.70
2019-04-20T09:08:50.325Z,2.70
2019-04-20T09:11:31.178Z,2.75
2019-04-20T09:13:49.619Z,2.40
2019-04-20T09:16:13.154Z,2.33
2019-04-20T09:18:54.708Z,2.40
2019-04-20T09:21:24.275Z,2.52
2019-04-20T09:24:16.227Z,2.62
2019-04-20T09:26:37.724Z,2.50
2019-04-20T09:29:13.738Z,2.62
2019-04-20T09:31:37.632Z,2.77
2019-04-20T09:34:16.124Z,2.80
2019-04-20T09:36:42.013Z,2.75
2019-04-20T09:39:16.486Z,2.33
2019-04-20T09:41:58.932Z,2.77
2019-04-20T09:44:09.329Z,2.58
2019-04-20T09:46:45.301Z,2.45
2019-04-20T09:49:20.710Z,2.65
2019-04-20T09:51:56.334Z,2.67
2019-04-20T09:54:29.999Z,2.58
2019-04-20T09:56:59.284Z,2.92
2019-04-20T09:59:28.359Z,2.40
2019-04-20T10:01:46.793Z,7.28
2019-04-20T10:04:11.153Z,3.10
2019-04-20T10:06:39.783Z,2.72
2019-04-20T10:09:09.688Z,2.47
2019-04-20T10:11:41.762Z,2.40
2019-04-20T10:14:08.688Z,3.33
2019-04-20T10:16:37.924Z,2.60
2019-04-20T10:19:07.877Z,3.40
2019-04-20T10:21:37.878Z,3.40
2019-04-20T10:24:08.437Z,2.50
2019-04-20T10:26:38.581Z,3.02
2019-04-20T10:29:07.869Z,2.85
2019-04-20T10:31:42.937Z,2.67
2019-04-20T10:34:07.468Z,2.60
2019-04-20T10:36:47.802Z,3.08
2019-04-20T10:39:18.520Z,2.80
2019-04-20T10:41:53.567Z,3.15
2019-04-20T10:44:18.643Z,2.52
2019-04-20T10:46:47.506Z,2.42
2019-04-20T10:49:17.415Z,2.70
2019-04-20T10:51:47.554Z,2.22
2019-04-20T10:54:20.439Z,2.20
2019-04-20T10:56:47.820Z,2.57
2019-04-20T10:59:16.341Z,2.37
2019-04-20T11:01:45.691Z,2.45
2019-04-20T11:04:14.770Z,2.75
2019-04-20T11:06:44.741Z,2.77
2019-04-20T11:09:14.398Z,3.05
2019-04-20T11:11:44.115Z,2.60
2019-04-20T11:14:21.162Z,2.50
2019-04-20T11:16:44.790Z,3.45
2019-04-20T11:19:13.532Z,2.72
2019-04-20T11:21:42.415Z,3.87
2019-04-20T11:24:12.142Z,3.12
2019-04-20T11:26:42.261Z,3.37
2019-04-20T11:29:11.081Z,5.25
2019-04-20T11:31:46.760Z,3.92
2019-04-20T11:34:10.223Z,3.27
2019-04-20T11:36:39.513Z,3.02
2019-04-20T11:39:11.257Z,3.50
2019-04-20T11:41:41.356Z,3.60
2019-04-20T11:44:11.587Z,3.00
2019-04-20T11:46:40.699Z,3.62
2019-04-20T11:49:09.755Z,3.42
2019-04-20T11:51:39.437Z,4.42
2019-04-20T11:54:08.439Z,3.52
2019-04-20T11:56:40.814Z,3.33
2019-04-20T11:59:09.307Z,3.50
2019-04-20T12:01:51.921Z,3.35
2019-04-20T12:04:34.000Z,3.52
2019-04-20T12:06:54.845Z,3.62
2019-04-20T12:09:24.616Z,3.50
2019-04-20T12:12:06.985Z,3.15
2019-04-20T12:14:24.918Z,3.27
2019-04-20T12:16:53.621Z,3.98
2019-04-20T12:19:22.894Z,3.77
2019-04-20T12:21:51.742Z,2.83
2019-04-20T12:24:20.573Z,4.42
2019-04-20T12:26:49.158Z,4.08
2019-04-20T12:29:17.718Z,3.08
2019-04-20T12:31:52.259Z,3.15
2019-04-20T12:34:16.386Z,5.25
2019-04-20T12:36:44.967Z,2.77
2019-04-20T12:39:13.536Z,3.60
2019-04-20T12:41:49.840Z,3.52
2019-04-20T12:44:12.315Z,2.75
2019-04-20T12:46:41.518Z,3.00
2019-04-20T12:49:11.538Z,3.47
2019-04-20T12:51:49.939Z,3.02
2019-04-20T12:54:10.870Z,3.17
2019-04-20T12:56:40.448Z,3.10
2019-04-20T12:59:09.673Z,2.92
2019-04-20T13:01:39.579Z,3.25
2019-04-20T13:04:09.412Z,3.00
2019-04-20T13:06:39.171Z,2.90
2019-04-20T13:09:12.544Z,2.62
2019-04-20T13:11:50.357Z,2.98
2019-04-20T13:14:40.154Z,2.55
2019-04-20T13:17:08.767Z,2.87
2019-04-20T13:19:37.451Z,3.62
2019-04-20T13:22:07.342Z,3.20
2019-04-20T13:24:36.972Z,3.80
2019-04-20T13:27:06.798Z,3.00
2019-04-20T13:29:38.141Z,3.42
2019-04-20T13:32:06.061Z,4.58
2019-04-20T13:34:35.791Z,5.15
2019-04-20T13:37:04.726Z,3.92
2019-04-20T13:39:33.359Z,3.70
2019-04-20T13:42:11.437Z,3.58
2019-04-20T13:44:32.676Z,4.70
2019-04-20T13:47:01.329Z,5.00
2019-04-20T13:49:31.169Z,4.08
2019-04-20T13:52:00.052Z,4.50
2019-04-20T13:54:29.854Z,4.22
2019-04-20T13:57:00.628Z,4.90
2019-04-20T13:59:35.199Z,4.10
2019-04-20T14:02:22.725Z,5.80
2019-04-20T14:04:54.959Z,6.90
2019-04-20T14:07:24.860Z,5.53
2019-04-20T14:09:53.556Z,5.85
2019-04-20T14:12:29.860Z,5.70
2019-04-20T14:14:53.132Z,6.12
2019-04-20T14:17:23.290Z,6.65
2019-04-20T14:19:53.086Z,4.33
2019-04-20T14:22:22.974Z,4.47
2019-04-20T14:24:53.112Z,3.30
2019-04-20T14:27:22.104Z,4.03
2019-04-20T14:29:50.891Z,4.20
2019-04-20T14:32:20.996Z,4.47
2019-04-20T14:34:51.100Z,5.20
2019-04-20T14:37:20.709Z,13.72
2019-04-20T14:39:50.307Z,5.78
2019-04-20T14:42:30.466Z,5.30
2019-04-20T14:44:50.100Z,4.80
2019-04-20T14:47:19.328Z,4.45
2019-04-20T14:49:48.624Z,3.92
2019-04-20T14:52:17.630Z,4.75
2019-04-20T14:54:47.671Z,4.00
2019-04-20T14:57:17.256Z,4.10
2019-04-20T14:59:47.542Z,7.55
2019-04-20T15:02:17.531Z,4.85
2019-04-20T15:04:47.355Z,4.15
2019-04-20T15:07:16.491Z,4.45
2019-04-20T15:09:45.000Z,5.53
2019-04-20T15:12:14.800Z,3.42
2019-04-20T15:14:44.934Z,3.10
2019-04-20T15:17:15.526Z,3.77
2019-04-20T15:19:51.840Z,3.60
2019-04-20T15:22:31.703Z,4.33
2019-04-20T15:25:00.673Z,3.02
2019-04-20T15:27:30.320Z,3.65
2019-04-20T15:30:00.289Z,4.78
2019-04-20T15:32:29.234Z,3.87
2019-04-20T15:34:57.764Z,3.40
2019-04-20T15:37:26.651Z,2.58
2019-04-20T15:39:55.340Z,2.50
2019-04-20T15:42:25.375Z,3.37
2019-04-20T15:44:55.459Z,7.17
2019-04-20T15:47:25.713Z,4.30
2019-04-20T15:49:55.836Z,4.00
2019-04-20T15:52:28.817Z,4.60
2019-04-20T15:54:55.929Z,7.15
2019-04-20T15:57:27.672Z,4.55
2019-04-20T15:59:56.179Z,4.30
2019-04-20T16:02:33.622Z,5.25
2019-04-20T16:05:04.157Z,3.80
2019-04-20T16:07:40.718Z,4.53
2019-04-20T16:10:05.346Z,4.17
2019-04-20T16:12:35.176Z,3.77
2019-04-20T16:15:05.370Z,5.42
2019-04-20T16:17:39.172Z,3.00
2019-04-20T16:20:09.115Z,2.65
2019-04-20T16:22:36.576Z,2.72
2019-04-20T16:25:09.611Z,3.00
2019-04-20T16:27:38.292Z,3.70
2019-04-20T16:30:09.477Z,3.12
2019-04-20T16:32:38.540Z,3.75
2019-04-20T16:35:08.720Z,3.20
2019-04-20T16:37:38.382Z,3.10
2019-04-20T16:40:09.799Z,3.20
2019-04-20T16:42:40.938Z,3.10
2019-04-20T16:45:09.596Z,3.52
2019-04-20T16:47:38.227Z,3.98
2019-04-20T16:50:08.852Z,3.25
2019-04-20T16:52:37.427Z,7.67
2019-04-20T16:55:06.530Z,24.20
2019-04-20T16:57:35.548Z,3.75
2019-04-20T17:00:07.380Z,3.30
2019-04-20T17:02:36.310Z,3.58
2019-04-20T17:05:05.521Z,3.67
2019-04-20T17:07:37.163Z,3.10
2019-04-20T17:10:09.655Z,3.47
2019-04-20T17:12:39.796Z,2.90
2019-04-20T17:15:09.820Z,3.52
2019-04-20T17:17:39.920Z,3.60
2019-04-20T17:20:11.356Z,3.27
2019-04-20T17:22:40.293Z,3.72
2019-04-20T17:25:10.239Z,4.72
2019-04-20T17:27:41.267Z,5.47
2019-04-20T17:30:26.665Z,5.70
2019-04-20T17:33:06.163Z,7.50
2019-04-20T17:35:47.338Z,9.45
2019-04-20T17:38:06.769Z,8.95
2019-04-20T17:40:59.118Z,7.15
2019-04-20T17:43:19.139Z,8.70
2019-04-20T17:45:43.217Z,6.95
2019-04-20T17:48:18.778Z,12.40
2019-04-20T17:51:01.406Z,25.15
2019-04-20T17:53:27.402Z,14.00
2019-04-20T17:55:53.455Z,10.60
2019-04-20T17:58:27.994Z,7.15
2019-04-20T18:00:58.540Z,7.12
2019-04-20T18:04:03.559Z,7.03
2019-04-20T18:06:21.523Z,7.20
2019-04-20T18:08:50.599Z,6.78
2019-04-20T18:11:10.998Z,5.62
2019-04-20T18:13:34.374Z,6.33
2019-04-20T18:16:29.642Z,5.97
2019-04-20T18:19:02.034Z,7.08
2019-04-20T18:21:33.053Z,6.05
2019-04-20T18:24:05.267Z,5.97
2019-04-20T18:26:49.442Z,6.87
2019-04-20T18:29:20.126Z,8.20
2019-04-20T18:31:35.404Z,8.65
2019-04-20T18:34:14.413Z,10.82
2019-04-20T18:36:42.927Z,9.18
2019-04-20T18:39:13.200Z,10.50
2019-04-20T18:41:45.570Z,9.85
2019-04-20T18:44:10.775Z,10.48
2019-04-20T18:47:07.026Z,12.33
2019-04-20T18:49:27.293Z,11.30
2019-04-20T18:51:41.771Z,11.35
2019-04-20T18:54:17.475Z,10.08
2019-04-20T18:56:46.818Z,9.65
2019-04-20T18:59:11.492Z,10.48
2019-04-20T19:01:43.163Z,10.90
2019-04-20T19:04:10.376Z,11.08
2019-04-20T19:06:39.035Z,11.63
2019-04-20T19:09:09.210Z,12.05
2019-04-20T19:11:43.147Z,11.48
2019-04-20T19:14:31.546Z,11.78
2019-04-20T19:17:16.725Z,13.65
2019-04-20T19:19:43.382Z,12.88
2019-04-20T19:22:08.357Z,14.58
2019-04-20T19:24:38.609Z,13.88
2019-04-20T19:27:12.056Z,14.50
2019-04-20T19:29:47.264Z,20.50
2019-04-20T19:32:23.852Z,17.48
2019-04-20T19:34:52.623Z,16.65
2019-04-20T19:37:15.591Z,18.50
2019-04-20T19:39:56.603Z,23.20
2019-04-20T19:42:27.613Z,24.27
2019-04-20T19:44:55.679Z,22.58
2019-04-20T19:47:28.429Z,18.07
2019-04-20T19:49:47.886Z,18.57
2019-04-20T19:52:50.441Z,18.15
2019-04-20T19:54:56.846Z,15.55
2019-04-20T19:57:32.223Z,15.38
2019-04-20T19:59:46.220Z,14.55
2019-04-20T20:02:11.864Z,13.95
2019-04-20T20:04:48.442Z,14.93
2019-04-20T20:07:18.757Z,16.12
2019-04-20T20:09:49.788Z,16.60
2019-04-20T20:12:14.513Z,16.82
2019-04-20T20:14:45.816Z,14.43
2019-04-20T20:17:32.850Z,13.50
2019-04-20T20:20:08.795Z,13.80
2019-04-20T20:22:21.718Z,14.85
2019-04-20T20:24:43.164Z,15.93
2019-04-20T20:27:20.704Z,15.23
2019-04-20T20:29:57.116Z,17.75
2019-04-20T20:32:23.410Z,17.05
2019-04-20T20:34:45.458Z,15.18
2019-04-20T20:37:23.384Z,20.77
2019-04-20T20:39:53.576Z,24.63
2019-04-20T20:42:28.308Z,26.30
2019-04-20T20:44:52.678Z,29.23
2019-04-20T20:47:38.275Z,29.42
2019-04-20T20:50:08.245Z,26.25
2019-04-20T20:52:32.289Z,27.60
2019-04-20T20:54:53.989Z,30.00
2019-04-20T20:57:21.841Z,23.73
2019-04-20T20:59:54.386Z,22.10
2019-04-20T21:02:24.069Z,23.77
2019-04-20T21:04:45.923Z,22.55
2019-04-20T21:07:14.702Z,23.18
2019-04-20T21:09:43.404Z,23.27
2019-04-20T21:12:16.203Z,23.15
2019-04-20T21:14:43.537Z,22.05
2019-04-20T21:17:17.903Z,23.92
2019-04-20T21:19:57.940Z,23.05
2019-04-20T21:22:19.208Z,22.62
2019-04-20T21:24:47.049Z,23.18
2019-04-20T21:27:18.199Z,20.12
2019-04-20T21:29:51.534Z,21.97
2019-04-20T21:32:18.064Z,20.97
2019-04-20T21:34:53.327Z,19.85
2019-04-20T21:37:20.081Z,19.70
2019-04-20T21:39:52.272Z,20.50
2019-04-20T21:42:21.258Z,20.52
2019-04-20T21:44:50.072Z,19.17
2019-04-20T21:47:24.747Z,21.35
2019-04-20T21:49:58.078Z,37.53
2019-04-20T21:52:24.839Z,23.00
2019-04-20T21:54:48.149Z,20.12
2019-04-20T21:57:18.134Z,20.40
2019-04-20T21:59:50.429Z,22.75
2019-04-20T22:02:21.650Z,22.00
2019-04-20T22:04:49.254Z,21.73
2019-04-20T22:07:18.531Z,22.32
2019-04-20T22:09:52.790Z,21.27
2019-04-20T22:12:18.131Z,21.10
2019-04-20T22:14:48.667Z,17.05
2019-04-20T22:17:24.592Z,15.95
2019-04-20T22:20:02.548Z,16.82
2019-04-20T22:22:34.924Z,17.17
2019-04-20T22:25:02.596Z,19.75
2019-04-20T22:27:23.663Z,20.12
2019-04-20T22:29:48.195Z,20.72
2019-04-20T22:32:20.366Z,20.75
2019-04-20T22:34:55.915Z,21.87
2019-04-20T22:37:26.231Z,21.17
2019-04-20T22:39:54.454Z,21.85
2019-04-20T22:42:21.712Z,19.50
2019-04-20T22:44:57.602Z,20.68
2019-04-20T22:47:25.468Z,20.00
2019-04-20T22:50:12.566Z,18.67
2019-04-20T22:52:34.768Z,19.60
2019-04-20T22:55:11.727Z,19.23
2019-04-20T22:57:36.185Z,19.27
2019-04-20T23:00:01.885Z,17.95
2019-04-20T23:02:23.629Z,17.70
2019-04-20T23:04:53.229Z,16.37
2019-04-20T23:07:23.029Z,15.98
2019-04-20T23:09:54.979Z,16.27
2019-04-20T23:12:24.855Z,15.32
2019-04-20T23:14:52.407Z,15.08
2019-04-20T23:17:27.196Z,14.35
2019-04-20T23:19:56.195Z,14.80
2019-04-20T23:22:23.098Z,14.45
2019-04-20T23:24:53.327Z,14.85
2019-04-20T23:27:26.316Z,15.18
2019-04-20T23:29:53.258Z,15.32
2019-04-20T23:32:25.122Z,15.70
2019-04-20T23:34:57.725Z,15.68
2019-04-20T23:37:31.019Z,15.75
2019-04-20T23:39:54.459Z,16.55
2019-04-20T23:42:28.038Z,15.98
2019-04-20T23:45:14.776Z,15.30
2019-04-20T23:48:04.336Z,16.42
2019-04-20T23:50:46.532Z,15.85
2019-04-20T23:53:19.876Z,15.55
2019-04-20T23:55:31.914Z,16.27
2019-04-20T23:58:04.977Z,15.20
